Time;durP1;ratioP1;P1;durP2;ratioP2;P2;SDS_P1;SDS_P2;PMS_P1;PMS_P2;Temp;Humidity;BMP_temperature;BMP_pressure;BME280_temperature;BME280_humidity;BME280_pressure;Samples;Min_cycle;Max_cycle;Signal;HPM_P1;HPM_P2
2023/02/28 00:01:15;;;;;;;0.50;0.50;;;-0.60;99.90;;;;;;5039484;28;20285;-80
2023/02/28 00:03:42;;;;;;;0.50;0.50;;;-0.60;99.90;;;;;;5041341;28;20223;-78
2023/02/28 00:06:10;;;;;;;0.60;0.60;;;-0.60;99.90;;;;;;5039512;28;20258;-79
2023/02/28 00:08:38;;;;;;;0.50;0.50;;;-0.50;99.90;;;;;;5038849;28;20238;-78
2023/02/28 00:11:08;;;;;;;0.50;0.50;;;-0.50;99.90;;;;;;5039474;28;20226;-79
2023/02/28 00:13:37;;;;;;;0.50;0.50;;;-0.50;99.90;;;;;;5036129;28;20196;-79
2023/02/28 00:16:06;;;;;;;0.50;0.40;;;-0.40;99.90;;;;;;5030831;28;20219;-77
2023/02/28 00:18:33;;;;;;;1.20;1.17;;;-0.50;99.90;;;;;;5034130;28;20199;-76
2023/02/28 00:21:01;;;;;;;0.50;0.50;;;-0.50;99.90;;;;;;5036718;28;20544;-79
2023/02/28 00:23:31;;;;;;;0.50;0.50;;;-0.50;99.90;;;;;;5039314;28;20559;-79
2023/02/28 00:25:57;;;;;;;0.50;0.40;;;-0.60;99.90;;;;;;5040556;28;20231;-79
2023/02/28 00:28:24;;;;;;;0.50;0.50;;;-0.60;99.90;;;;;;5032398;28;20306;-79
2023/02/28 00:30:51;;;;;;;0.50;0.50;;;-0.60;99.90;;;;;;5040316;28;20596;-78
2023/02/28 00:33:18;;;;;;;0.50;0.50;;;-0.60;99.90;;;;;;5007632;28;20275;-79
2023/02/28 00:35:46;;;;;;;0.63;0.63;;;-0.70;99.90;;;;;;5039867;28;20253;-79
2023/02/28 00:38:13;;;;;;;0.50;0.50;;;-0.70;99.90;;;;;;5039306;28;20195;-79
2023/02/28 00:40:42;;;;;;;0.50;0.50;;;-0.70;99.90;;;;;;5031553;28;20291;-80
2023/02/28 00:43:08;;;;;;;0.50;0.50;;;-0.80;99.90;;;;;;5036817;28;20195;-79
2023/02/28 00:45:35;;;;;;;0.50;0.50;;;-0.80;99.90;;;;;;5044398;28;20253;-79
2023/02/28 00:48:02;;;;;;;0.63;0.63;;;-0.90;99.90;;;;;;5036756;28;20224;-79
2023/02/28 00:50:29;;;;;;;0.50;0.40;;;-0.90;99.90;;;;;;5040342;28;20195;-78
2023/02/28 00:52:56;;;;;;;0.50;0.45;;;-0.90;99.90;;;;;;5036236;28;20191;-78
2023/02/28 00:55:23;;;;;;;0.50;0.47;;;-0.80;99.90;;;;;;5030063;28;20302;-79
2023/02/28 00:57:51;;;;;;;0.50;0.50;;;-0.80;99.90;;;;;;5030031;28;20302;-79
2023/02/28 01:00:18;;;;;;;0.50;0.40;;;-0.80;99.90;;;;;;5020528;28;20274;-79
2023/02/28 01:02:45;;;;;;;0.50;0.50;;;-0.90;99.90;;;;;;5028026;28;20196;-79
2023/02/28 01:05:12;;;;;;;0.50;0.50;;;-0.90;99.90;;;;;;5033674;28;20278;-79
2023/02/28 01:07:39;;;;;;;0.50;0.50;;;-0.90;99.90;;;;;;5023223;28;20607;-79
2023/02/28 01:10:06;;;;;;;0.50;0.50;;;-1.00;99.90;;;;;;5041517;28;20318;-79
2023/02/28 01:12:33;;;;;;;0.50;0.50;;;-1.00;99.90;;;;;;5044601;28;20192;-79
2023/02/28 01:15:02;;;;;;;1.60;1.45;;;-1.00;99.90;;;;;;5043938;28;20207;-79
2023/02/28 01:17:29;;;;;;;0.50;0.50;;;-1.00;99.90;;;;;;5027043;28;20187;-78
2023/02/28 01:19:56;;;;;;;0.50;0.50;;;-1.00;99.90;;;;;;5034342;28;20757;-78
2023/02/28 01:22:23;;;;;;;0.50;0.40;;;-1.00;99.90;;;;;;5026884;28;20194;-78
2023/02/28 01:24:50;;;;;;;0.50;0.50;;;-0.90;99.90;;;;;;5041263;28;20226;-78
2023/02/28 01:27:17;;;;;;;1.00;1.00;;;-0.90;99.90;;;;;;5032598;28;20231;-78
2023/02/28 01:29:43;;;;;;;0.50;0.40;;;-0.90;99.90;;;;;;5040687;28;20215;-78
2023/02/28 01:32:12;;;;;;;10.23;3.00;;;-1.00;99.90;;;;;;5031909;28;20198;-78
2023/02/28 01:34:38;;;;;;;0.50;0.50;;;-1.00;99.90;;;;;;5039047;28;20206;-78
2023/02/28 01:37:05;;;;;;;0.63;0.63;;;-1.00;99.90;;;;;;5039628;28;20200;-78
2023/02/28 01:39:32;;;;;;;0.50;0.50;;;-1.10;99.90;;;;;;5040984;28;20259;-78
2023/02/28 01:41:59;;;;;;;0.50;0.50;;;-1.10;99.90;;;;;;5040331;28;20722;-78
2023/02/28 01:45:01;;;;;;;0.50;0.50;;;-1.10;99.90;;;;;;5032726;28;20191;-77
2023/02/28 01:47:33;;;;;;;0.50;0.50;;;-1.10;99.90;;;;;;5046814;28;20197;-78
2023/02/28 01:50:02;;;;;;;0.50;0.43;;;-1.10;99.90;;;;;;5050393;28;20279;-77
2023/02/28 01:52:30;;;;;;;0.50;0.50;;;-1.10;99.90;;;;;;5049017;28;20171;-78
2023/02/28 01:55:00;;;;;;;0.50;0.50;;;-1.10;99.90;;;;;;5046821;28;20219;-78
2023/02/28 01:57:31;;;;;;;0.50;0.50;;;-1.10;99.90;;;;;;5033730;28;20230;-78
2023/02/28 02:00:00;;;;;;;0.50;0.50;;;-1.10;99.90;;;;;;5042728;28;20234;-78
2023/02/28 02:02:29;;;;;;;0.50;0.50;;;-1.10;99.90;;;;;;5039057;28;20684;-78
2023/02/28 02:05:02;;;;;;;0.50;0.50;;;-1.10;99.90;;;;;;5032280;28;20218;-79
2023/02/28 02:07:33;;;;;;;0.75;0.75;;;-1.20;99.90;;;;;;5020353;28;20188;-78
2023/02/28 02:10:07;;;;;;;0.68;0.68;;;-1.20;99.90;;;;;;5032139;28;20204;-77
2023/02/28 02:12:52;;;;;;;0.50;0.50;;;-1.30;99.90;;;;;;5048245;28;20207;-78
2023/02/28 02:15:26;;;;;;;0.50;0.50;;;-1.30;99.90;;;;;;5051626;28;20215;-78
2023/02/28 02:17:59;;;;;;;0.50;0.50;;;-1.30;99.90;;;;;;5051498;28;20619;-77
2023/02/28 02:20:57;;;;;;;0.50;0.47;;;-1.30;99.90;;;;;;5037385;28;20207;-78
2023/02/28 02:23:50;;;;;;;0.50;0.45;;;-1.40;99.90;;;;;;5044476;28;20195;-78
2023/02/28 02:26:46;;;;;;;0.50;0.50;;;-1.40;99.90;;;;;;5047838;28;20298;-76
2023/02/28 02:29:55;;;;;;;0.50;0.50;;;-1.40;99.90;;;;;;5040565;28;20298;-77
2023/02/28 02:33:03;;;;;;;0.50;0.50;;;-1.50;99.90;;;;;;4964506;28;20204;-78
2023/02/28 02:35:35;;;;;;;0.50;0.50;;;-1.60;99.90;;;;;;5023533;28;20647;-76
2023/02/28 02:38:11;;;;;;;2.42;2.20;;;-1.60;99.90;;;;;;5031890;28;20227;-78
2023/02/28 02:40:44;;;;;;;0.50;0.50;;;-1.70;99.90;;;;;;5043425;28;20290;-76
2023/02/28 02:43:18;;;;;;;0.60;0.60;;;-1.70;99.90;;;;;;5044191;28;20203;-78
2023/02/28 02:45:50;;;;;;;0.50;0.50;;;-1.70;99.90;;;;;;5039491;28;20212;-79
2023/02/28 02:48:21;;;;;;;1.08;1.05;;;-1.70;99.90;;;;;;5035565;28;20196;-79
2023/02/28 02:50:55;;;;;;;2.05;1.17;;;-1.70;99.90;;;;;;5045996;28;20586;-79
2023/02/28 02:53:26;;;;;;;0.50;0.50;;;-1.70;99.90;;;;;;5045515;28;20203;-79
2023/02/28 02:55:54;;;;;;;0.50;0.50;;;-1.70;99.90;;;;;;5045801;28;20238;-79
2023/02/28 02:58:25;;;;;;;0.50;0.50;;;-1.80;99.90;;;;;;5037440;28;20545;-79
2023/02/28 03:00:55;;;;;;;0.50;0.50;;;-1.80;99.90;;;;;;5045277;28;20195;-78
2023/02/28 03:03:28;;;;;;;0.50;0.43;;;-1.80;99.90;;;;;;5042308;28;20264;-78
2023/02/28 03:05:57;;;;;;;0.50;0.50;;;-1.70;99.90;;;;;;5031829;28;20219;-78
2023/02/28 03:08:25;;;;;;;0.50;0.50;;;-1.70;99.90;;;;;;5036414;28;20187;-78
2023/02/28 03:10:56;;;;;;;0.50;0.47;;;-1.70;99.90;;;;;;5044306;28;20208;-78
2023/02/28 03:13:59;;;;;;;0.50;0.50;;;-1.70;99.90;;;;;;5042133;28;20230;-78
2023/02/28 03:16:36;;;;;;;0.50;0.50;;;-1.70;99.90;;;;;;5024796;28;20204;-78
2023/02/28 03:19:32;;;;;;;0.60;0.60;;;-1.70;99.90;;;;;;5030132;28;20279;-78
2023/02/28 03:22:25;;;;;;;0.50;0.50;;;-1.70;99.90;;;;;;5033927;28;20199;-79
2023/02/28 03:24:58;;;;;;;0.50;0.50;;;-1.60;99.90;;;;;;5034250;28;20866;-79
2023/02/28 03:27:28;;;;;;;0.50;0.50;;;-1.70;99.90;;;;;;5041033;28;20202;-79
2023/02/28 03:30:02;;;;;;;0.50;0.50;;;-1.70;99.90;;;;;;5041455;28;20590;-79
2023/02/28 03:32:34;;;;;;;2.25;1.60;;;-1.70;99.90;;;;;;5025393;28;20226;-78
2023/02/28 03:35:09;;;;;;;0.93;0.93;;;-1.70;99.90;;;;;;5042188;28;20257;-78
2023/02/28 03:37:41;;;;;;;12.00;11.20;;;-1.70;99.90;;;;;;5027797;28;20187;-78
2023/02/28 03:40:13;;;;;;;0.75;0.75;;;-1.70;99.90;;;;;;5032630;28;20278;-78
2023/02/28 03:42:43;;;;;;;0.50;0.50;;;-1.60;99.90;;;;;;5040029;28;20191;-79
2023/02/28 03:45:14;;;;;;;0.50;0.50;;;-1.60;99.90;;;;;;5038894;28;20215;-78
2023/02/28 03:47:45;;;;;;;1.50;1.40;;;-1.70;99.90;;;;;;5027785;28;20202;-78
2023/02/28 03:50:15;;;;;;;0.50;0.50;;;-1.70;99.90;;;;;;5035081;28;20708;-79
2023/02/28 03:52:47;;;;;;;0.50;0.50;;;-1.80;99.90;;;;;;5032735;28;20196;-77
2023/02/28 03:55:16;;;;;;;0.50;0.50;;;-1.80;99.90;;;;;;5038699;28;20686;-79
2023/02/28 03:57:51;;;;;;;0.50;0.50;;;-1.80;99.90;;;;;;5038761;28;20218;-79
2023/02/28 04:00:22;;;;;;;0.50;0.50;;;-1.80;99.90;;;;;;5030780;28;20237;-78
2023/02/28 04:02:52;;;;;;;0.50;0.50;;;-1.80;99.90;;;;;;5033441;28;20199;-79
2023/02/28 04:05:19;;;;;;;0.50;0.50;;;-1.90;99.90;;;;;;5043617;28;20229;-77
2023/02/28 04:07:48;;;;;;;0.50;0.50;;;-2.00;99.90;;;;;;5041874;28;20726;-78
2023/02/28 04:10:17;;;;;;;0.60;0.60;;;-2.00;99.90;;;;;;5033289;28;20246;-79
2023/02/28 04:12:44;;;;;;;0.50;0.50;;;-2.00;99.90;;;;;;5039900;28;20183;-79
2023/02/28 04:15:11;;;;;;;0.50;0.50;;;-2.00;99.90;;;;;;5040730;28;20242;-79
2023/02/28 04:17:38;;;;;;;0.50;0.50;;;-2.10;99.90;;;;;;5033200;28;20191;-77
2023/02/28 04:20:09;;;;;;;0.50;0.50;;;-2.00;99.90;;;;;;5041048;28;20598;-79
2023/02/28 04:22:37;;;;;;;0.50;0.50;;;-2.10;99.90;;;;;;5026692;28;20617;-78
2023/02/28 04:25:06;;;;;;;0.50;0.50;;;-2.10;99.90;;;;;;5040833;28;20737;-79
2023/02/28 04:27:33;;;;;;;0.50;0.50;;;-2.10;99.90;;;;;;5032758;28;20665;-78
2023/02/28 04:30:00;;;;;;;0.50;0.50;;;-2.10;99.90;;;;;;5040775;28;20302;-78
2023/02/28 04:32:27;;;;;;;0.50;0.50;;;-2.20;99.90;;;;;;5041176;28;20199;-78
2023/02/28 04:34:54;;;;;;;0.50;0.50;;;-2.20;99.90;;;;;;5040275;28;20246;-78
2023/02/28 04:37:27;;;;;;;0.50;0.50;;;-2.10;99.90;;;;;;5040536;28;20237;-78
2023/02/28 04:39:54;;;;;;;0.50;0.50;;;-2.10;99.90;;;;;;5041035;28;20214;-78
2023/02/28 04:42:22;;;;;;;0.50;0.50;;;-2.10;99.90;;;;;;5039963;28;20286;-78
2023/02/28 04:44:49;;;;;;;0.50;0.40;;;-2.10;99.90;;;;;;5033952;28;20258;-78
2023/02/28 04:47:16;;;;;;;0.50;0.50;;;-2.10;99.90;;;;;;5037205;28;20202;-78
2023/02/28 04:49:43;;;;;;;0.50;0.50;;;-2.10;99.90;;;;;;5033410;28;20223;-78
2023/02/28 04:52:10;;;;;;;0.50;0.50;;;-2.10;99.90;;;;;;5031726;28;20195;-78
2023/02/28 04:54:38;;;;;;;0.50;0.50;;;-2.10;99.90;;;;;;5039153;28;20255;-79
2023/02/28 04:57:05;;;;;;;0.50;0.40;;;-2.00;99.90;;;;;;5040247;28;20574;-78
2023/02/28 04:59:34;;;;;;;0.50;0.50;;;-2.10;99.90;;;;;;5031500;28;20226;-78
2023/02/28 05:02:06;;;;;;;0.50;0.50;;;-2.10;99.90;;;;;;5040316;28;20226;-78
2023/02/28 05:04:34;;;;;;;4.22;4.10;;;-2.10;99.90;;;;;;5032882;28;20195;-78
2023/02/28 05:07:01;;;;;;;1.45;1.35;;;-2.10;99.90;;;;;;5041989;28;20195;-79
2023/02/28 05:09:28;;;;;;;1.10;1.02;;;-2.10;99.90;;;;;;5033378;28;20203;-78
2023/02/28 05:11:56;;;;;;;0.50;0.50;;;-2.00;99.90;;;;;;5033537;28;20567;-78
2023/02/28 05:14:23;;;;;;;8.13;7.85;;;-2.10;99.90;;;;;;5030246;28;20202;-79
2023/02/28 05:16:51;;;;;;;0.50;0.50;;;-2.20;99.90;;;;;;5033991;28;20311;-78
2023/02/28 05:19:18;;;;;;;0.50;0.50;;;-2.30;99.90;;;;;;5040394;28;20262;-79
2023/02/28 05:21:51;;;;;;;0.50;0.50;;;-2.40;99.90;;;;;;5040453;28;20272;-79
2023/02/28 05:24:22;;;;;;;0.50;0.50;;;-2.40;99.90;;;;;;5038528;28;20278;-78
2023/02/28 05:26:50;;;;;;;0.50;0.50;;;-2.40;99.90;;;;;;5020236;28;20242;-79
2023/02/28 05:29:17;;;;;;;0.50;0.40;;;-2.40;99.90;;;;;;5037413;28;20524;-78
2023/02/28 05:31:44;;;;;;;0.50;0.50;;;-2.40;99.90;;;;;;5039408;28;20274;-78
2023/02/28 05:34:12;;;;;;;0.50;0.50;;;-2.30;99.90;;;;;;5038725;28;20282;-78
2023/02/28 05:36:40;;;;;;;0.50;0.50;;;-2.20;99.90;;;;;;5038684;28;20223;-79
2023/02/28 05:39:12;;;;;;;0.50;0.50;;;-2.30;99.90;;;;;;5030927;28;20195;-79
2023/02/28 05:41:40;;;;;;;0.50;0.50;;;-2.30;99.90;;;;;;5036290;28;20204;-78
2023/02/28 05:44:06;;;;;;;1.00;1.00;;;-2.20;99.90;;;;;;5034203;28;20198;-77
2023/02/28 05:46:33;;;;;;;0.50;0.50;;;-2.30;99.90;;;;;;5034611;28;20244;-77
2023/02/28 05:49:00;;;;;;;0.50;0.50;;;-2.30;99.90;;;;;;5032861;28;20234;-77
2023/02/28 05:51:29;;;;;;;0.50;0.50;;;-2.30;99.90;;;;;;5036614;28;20261;-77
2023/02/28 05:54:00;;;;;;;0.50;0.50;;;-2.20;99.90;;;;;;5037568;28;20204;-77
2023/02/28 05:56:26;;;;;;;0.50;0.50;;;-2.20;99.90;;;;;;5040012;28;20223;-76
2023/02/28 05:58:53;;;;;;;0.70;0.70;;;-2.30;99.90;;;;;;5040296;28;20196;-77
2023/02/28 06:01:25;;;;;;;0.85;0.85;;;-2.20;99.90;;;;;;5040743;28;20198;-76
2023/02/28 06:03:52;;;;;;;0.50;0.50;;;-2.20;99.90;;;;;;5035056;28;20631;-77
2023/02/28 06:06:19;;;;;;;0.50;0.50;;;-2.30;99.90;;;;;;5029630;28;20223;-76
2023/02/28 06:08:48;;;;;;;0.60;0.60;;;-2.30;99.90;;;;;;5042653;28;20228;-77
2023/02/28 06:11:14;;;;;;;0.50;0.50;;;-2.40;99.90;;;;;;5040406;28;20304;-77
2023/02/28 06:13:41;;;;;;;0.50;0.50;;;-2.40;99.90;;;;;;5038793;28;20534;-76
2023/02/28 06:16:10;;;;;;;0.50;0.50;;;-2.40;99.90;;;;;;5039886;28;20211;-77
2023/02/28 06:18:37;;;;;;;0.50;0.50;;;-2.30;99.90;;;;;;5038186;28;20299;-75
2023/02/28 06:21:03;;;;;;;0.50;0.43;;;-2.40;99.90;;;;;;5038971;28;20191;-77
2023/02/28 06:23:30;;;;;;;0.50;0.50;;;-2.30;99.90;;;;;;5038275;28;20202;-78
2023/02/28 06:25:58;;;;;;;0.50;0.47;;;-2.30;99.90;;;;;;5039291;28;20661;-79
2023/02/28 06:28:26;;;;;;;0.50;0.45;;;-2.40;99.90;;;;;;5038846;28;20290;-78
2023/02/28 06:30:52;;;;;;;0.50;0.47;;;-2.30;99.90;;;;;;5039241;28;20701;-78
2023/02/28 06:33:19;;;;;;;0.50;0.50;;;-2.30;99.90;;;;;;5031821;28;20306;-81
2023/02/28 06:35:47;;;;;;;0.50;0.50;;;-2.30;99.90;;;;;;5041059;28;20213;-80
2023/02/28 06:38:14;;;;;;;0.70;0.70;;;-2.30;99.90;;;;;;5041171;28;20685;-80
2023/02/28 06:40:41;;;;;;;0.50;0.50;;;-2.30;99.90;;;;;;5042584;28;20285;-78
2023/02/28 06:43:13;;;;;;;0.50;0.50;;;-2.30;99.90;;;;;;5041490;28;20195;-79
2023/02/28 06:45:43;;;;;;;0.50;0.50;;;-2.20;99.90;;;;;;5033581;28;20219;-81
2023/02/28 06:48:10;;;;;;;0.50;0.50;;;-2.20;99.90;;;;;;5039102;28;20227;-80
2023/02/28 06:50:37;;;;;;;0.50;0.50;;;-2.10;99.90;;;;;;5039904;28;20211;-80
2023/02/28 06:53:04;;;;;;;0.50;0.50;;;-2.10;99.90;;;;;;5038807;28;20567;-77
2023/02/28 06:55:31;;;;;;;1.08;1.05;;;-2.00;99.90;;;;;;5041958;28;20227;-78
2023/02/28 06:57:58;;;;;;;0.50;0.50;;;-1.90;99.90;;;;;;5041200;28;20627;-79
2023/02/28 07:00:26;;;;;;;0.60;0.60;;;-1.90;99.90;;;;;;5039155;28;20627;-79
2023/02/28 07:02:54;;;;;;;0.50;0.50;;;-1.80;99.90;;;;;;5039224;28;20207;-79
2023/02/28 07:05:21;;;;;;;0.50;0.50;;;-1.70;99.90;;;;;;5028934;28;20243;-77
2023/02/28 07:07:48;;;;;;;0.50;0.45;;;-1.50;99.90;;;;;;5018655;28;20259;-79
2023/02/28 07:10:16;;;;;;;1.00;1.00;;;-1.40;99.90;;;;;;5021679;28;20195;-79
2023/02/28 07:12:44;;;;;;;9.50;8.80;;;-1.20;99.90;;;;;;5022794;28;20548;-77
2023/02/28 07:15:11;;;;;;;0.50;0.43;;;-1.10;99.90;;;;;;5015019;28;20230;-79
2023/02/28 07:17:39;;;;;;;0.50;0.50;;;-1.00;99.90;;;;;;5020966;28;20682;-78
2023/02/28 07:20:08;;;;;;;0.50;0.50;;;-0.90;99.90;;;;;;5017282;28;20575;-79
2023/02/28 07:22:35;;;;;;;0.50;0.50;;;-0.70;99.90;;;;;;5031210;28;20197;-81
2023/02/28 07:25:02;;;;;;;0.50;0.40;;;-0.60;99.90;;;;;;5028368;28;20228;-82
2023/02/28 07:27:29;;;;;;;0.50;0.50;;;-0.50;99.90;;;;;;5031580;28;20188;-79
2023/02/28 07:29:56;;;;;;;0.82;0.82;;;-0.40;99.90;;;;;;5035383;28;20937;-79
2023/02/28 07:32:22;;;;;;;0.50;0.50;;;-0.30;99.90;;;;;;5032010;28;20217;-80
2023/02/28 07:34:51;;;;;;;0.50;0.50;;;-0.20;99.90;;;;;;5032274;28;20282;-80
2023/02/28 07:37:17;;;;;;;0.88;0.88;;;-0.10;99.90;;;;;;5029162;28;20628;-81
2023/02/28 07:39:44;;;;;;;0.50;0.50;;;0.10;99.90;;;;;;5018096;28;20187;-79
2023/02/28 07:42:12;;;;;;;0.50;0.50;;;0.30;99.90;;;;;;5039400;28;20198;-80
2023/02/28 07:44:40;;;;;;;0.50;0.50;;;0.80;99.90;;;;;;5041088;28;20196;-79
2023/02/28 07:47:08;;;;;;;0.50;0.50;;;1.60;99.90;;;;;;5022715;28;20207;-81
2023/02/28 07:49:35;;;;;;;0.55;0.50;;;2.30;99.90;;;;;;5037140;28;20199;-80
2023/02/28 07:52:04;;;;;;;0.50;0.40;;;3.00;99.90;;;;;;5043879;28;20305;-82
2023/02/28 07:54:31;;;;;;;0.50;0.50;;;3.60;99.90;;;;;;5051497;28;20210;-81
2023/02/28 07:56:58;;;;;;;0.50;0.50;;;4.30;99.90;;;;;;5038249;28;20720;-81
2023/02/28 07:59:25;;;;;;;0.50;0.40;;;5.00;99.90;;;;;;5037484;28;20286;-82
2023/02/28 08:01:52;;;;;;;0.50;0.40;;;6.30;99.90;;;;;;5038144;28;20628;-81
2023/02/28 08:04:19;;;;;;;0.50;0.50;;;7.00;93.70;;;;;;5037546;28;20199;-83
2023/02/28 08:06:46;;;;;;;0.50;0.40;;;7.00;87.40;;;;;;5037512;28;20215;-82
2023/02/28 08:09:14;;;;;;;0.50;0.40;;;7.40;87.70;;;;;;5038326;28;20199;-82
2023/02/28 08:11:41;;;;;;;0.52;0.50;;;8.30;85.60;;;;;;5037561;28;20211;-82
2023/02/28 08:14:08;;;;;;;0.50;0.40;;;8.80;80.00;;;;;;5038055;28;20282;-81
2023/02/28 08:16:35;;;;;;;4.20;2.25;;;9.90;80.20;;;;;;5038220;28;20298;-79
2023/02/28 08:19:01;;;;;;;0.55;0.52;;;11.00;71.30;;;;;;5036999;28;20199;-83
2023/02/28 08:21:28;;;;;;;1.10;0.60;;;12.10;67.30;;;;;;5037772;28;20608;-82
2023/02/28 08:23:56;;;;;;;0.50;0.40;;;12.80;60.60;;;;;;5037470;28;20884;-82
2023/02/28 08:26:24;;;;;;;0.50;0.40;;;12.10;57.20;;;;;;5037246;28;20223;-81
2023/02/28 08:28:51;;;;;;;4.13;0.77;;;11.20;57.00;;;;;;5037802;28;20992;-81
2023/02/28 08:31:19;;;;;;;0.50;0.50;;;10.60;57.10;;;;;;5038685;28;20215;-81
2023/02/28 08:33:48;;;;;;;1.40;1.20;;;10.70;57.70;;;;;;5029453;28;20192;-79
2023/02/28 08:36:15;;;;;;;0.60;0.50;;;10.20;57.50;;;;;;5040000;28;20301;-82
2023/02/28 08:38:42;;;;;;;0.50;0.40;;;10.60;59.60;;;;;;5038031;28;20199;-83
2023/02/28 08:41:12;;;;;;;0.50;0.50;;;12.10;59.10;;;;;;5036911;28;20602;-80
2023/02/28 08:43:41;;;;;;;0.63;0.63;;;13.60;57.10;;;;;;5037006;28;20517;-80
2023/02/28 08:46:09;;;;;;;0.50;0.40;;;15.20;53.60;;;;;;5037408;28;20464;-79
2023/02/28 08:48:38;;;;;;;0.50;0.40;;;16.20;51.20;;;;;;5036961;28;20474;-80
2023/02/28 08:51:08;;;;;;;0.93;0.93;;;17.40;50.30;;;;;;5038832;28;20497;-80
2023/02/28 08:53:36;;;;;;;0.60;0.60;;;18.60;49.00;;;;;;5036818;28;20434;-80
2023/02/28 08:56:05;;;;;;;0.50;0.30;;;20.10;47.90;;;;;;5036765;28;20545;-80
2023/02/28 08:58:33;;;;;;;0.50;0.40;;;20.90;44.70;;;;;;5036605;28;20521;-80
2023/02/28 09:01:01;;;;;;;0.50;0.33;;;21.30;42.40;;;;;;5037011;28;20508;-80
2023/02/28 09:03:28;;;;;;;0.50;0.50;;;21.60;41.00;;;;;;5039073;28;20438;-81
2023/02/28 09:05:56;;;;;;;0.50;0.40;;;21.40;40.00;;;;;;5036815;28;20457;-80
2023/02/28 09:08:23;;;;;;;0.50;0.40;;;20.70;39.90;;;;;;5036282;28;20446;-80
2023/02/28 09:10:50;;;;;;;0.50;0.40;;;20.80;40.00;;;;;;5036136;28;20475;-81
2023/02/28 09:13:17;;;;;;;0.50;0.40;;;21.60;41.10;;;;;;5036621;28;20858;-80
2023/02/28 09:15:44;;;;;;;0.50;0.30;;;22.00;39.70;;;;;;5036154;28;20501;-81
2023/02/28 09:18:13;;;;;;;0.50;0.40;;;21.90;38.10;;;;;;5036311;28;20513;-81
2023/02/28 09:20:40;;;;;;;0.50;0.30;;;21.90;38.10;;;;;;5036299;28;20438;-80
2023/02/28 09:23:08;;;;;;;0.93;0.93;;;21.40;37.20;;;;;;5036171;28;20468;-80
2023/02/28 09:25:34;;;;;;;0.60;0.50;;;21.00;37.60;;;;;;5036174;28;20469;-80
2023/02/28 09:28:01;;;;;;;0.50;0.30;;;20.50;37.40;;;;;;5036381;28;20438;-82
2023/02/28 09:30:29;;;;;;;0.50;0.47;;;20.20;38.60;;;;;;5036480;28;20442;-80
2023/02/28 09:32:56;;;;;;;0.50;0.40;;;20.20;37.90;;;;;;5040219;28;20484;-81
2023/02/28 09:35:26;;;;;;;1.43;1.33;;;20.20;37.80;;;;;;5040122;28;20541;-81
2023/02/28 09:37:53;;;;;;;0.67;0.53;;;20.20;37.50;;;;;;5039776;28;20441;-81
2023/02/28 09:40:23;;;;;;;0.63;0.63;;;19.70;37.00;;;;;;5040090;28;20878;-80
2023/02/28 09:42:53;;;;;;;0.60;0.50;;;19.10;37.80;;;;;;5040000;28;20742;-80
2023/02/28 09:45:25;;;;;;;0.50;0.40;;;18.30;37.70;;;;;;5040220;28;20500;-81
2023/02/28 09:47:55;;;;;;;0.50;0.40;;;17.90;38.80;;;;;;5023739;28;20446;-81
2023/02/28 09:50:32;;;;;;;1.23;0.60;;;17.80;39.60;;;;;;5040049;28;20810;-79
2023/02/28 09:53:02;;;;;;;1.90;1.17;;;17.40;37.80;;;;;;5040003;28;20485;-81
2023/02/28 09:55:34;;;;;;;0.60;0.50;;;15.90;38.00;;;;;;5039040;28;20468;-80
2023/02/28 09:58:02;;;;;;;0.50;0.40;;;15.10;39.30;;;;;;5039040;28;20434;-80
2023/02/28 10:00:33;;;;;;;0.50;0.40;;;13.40;39.50;;;;;;5038912;28;20507;-82
2023/02/28 10:03:26;;;;;;;0.50;0.43;;;12.70;40.30;;;;;;5038658;28;20437;-80
2023/02/28 10:06:02;;;;;;;0.50;0.40;;;11.70;41.20;;;;;;5035180;28;20445;-82
2023/02/28 10:08:33;;;;;;;0.50;0.40;;;11.30;42.40;;;;;;5056403;28;20258;-81
2023/02/28 10:11:04;;;;;;;1.17;0.70;;;11.40;43.50;;;;;;5047210;28;20199;-80
2023/02/28 10:13:36;;;;;;;0.50;0.40;;;11.60;44.30;;;;;;5041302;28;20207;-80
2023/02/28 10:16:06;;;;;;;0.50;0.45;;;11.40;44.40;;;;;;5040287;28;20461;-82
2023/02/28 10:18:42;;;;;;;0.50;0.40;;;11.40;44.50;;;;;;5040263;28;20215;-81
2023/02/28 10:21:20;;;;;;;0.73;0.73;;;10.70;45.30;;;;;;5041249;28;20308;-80
2023/02/28 10:23:49;;;;;;;0.50;0.40;;;10.00;45.70;;;;;;5040019;28;20191;-78
2023/02/28 10:26:18;;;;;;;0.50;0.40;;;10.20;46.30;;;;;;5039278;28;20317;-81
2023/02/28 10:28:46;;;;;;;1.35;0.65;;;10.10;46.20;;;;;;5038836;28;20196;-80
2023/02/28 10:31:18;;;;;;;0.70;0.70;;;9.20;47.90;;;;;;5038888;28;20195;-80
2023/02/28 10:33:45;;;;;;;0.65;0.65;;;8.60;48.10;;;;;;5039334;28;20223;-80
2023/02/28 10:36:16;;;;;;;0.50;0.47;;;8.10;49.30;;;;;;5039533;28;20586;-80
2023/02/28 10:38:44;;;;;;;0.50;0.40;;;7.70;50.50;;;;;;5040052;28;20202;-81
2023/02/28 10:41:14;;;;;;;1.45;1.35;;;7.80;50.80;;;;;;5039470;28;20241;-80
2023/02/28 10:43:42;;;;;;;0.50;0.40;;;7.60;50.70;;;;;;5039039;28;20191;-80
2023/02/28 10:46:25;;;;;;;0.60;0.60;;;7.20;50.90;;;;;;5038940;28;20217;-81
2023/02/28 10:49:02;;;;;;;0.70;0.70;;;6.90;51.10;;;;;;5039787;28;20191;-80
2023/02/28 10:51:38;;;;;;;0.60;0.50;;;6.50;51.10;;;;;;5041484;28;20215;-79
2023/02/28 10:54:06;;;;;;;0.50;0.50;;;6.60;51.80;;;;;;5039865;28;20270;-80
2023/02/28 10:56:33;;;;;;;0.50;0.50;;;6.60;51.90;;;;;;5040631;28;20214;-80
2023/02/28 10:59:02;;;;;;;5.03;3.00;;;6.80;51.70;;;;;;5040465;28;20195;-81
2023/02/28 11:01:41;;;;;;;0.50;0.50;;;7.30;51.30;;;;;;5040325;28;20255;-81
2023/02/28 11:04:35;;;;;;;0.70;0.60;;;7.70;50.70;;;;;;5040946;28;20203;-80
2023/02/28 11:07:10;;;;;;;0.60;0.57;;;8.20;50.00;;;;;;5026035;28;20195;-81
2023/02/28 11:09:39;;;;;;;0.50;0.40;;;8.90;49.20;;;;;;5041212;28;20254;-80
2023/02/28 11:12:20;;;;;;;0.50;0.47;;;9.50;49.00;;;;;;5038035;28;20211;-81
2023/02/28 11:14:51;;;;;;;0.50;0.40;;;10.20;47.30;;;;;;5038291;28;20198;-80
2023/02/28 11:17:22;;;;;;;1.07;0.60;;;11.40;46.40;;;;;;5038189;28;20274;-80
2023/02/28 11:19:54;;;;;;;0.90;0.70;;;11.60;44.30;;;;;;5039338;28;20533;-80
2023/02/28 11:22:28;;;;;;;0.50;0.40;;;11.20;43.20;;;;;;5039799;28;20926;-80
2023/02/28 11:24:57;;;;;;;0.77;0.70;;;11.00;43.70;;;;;;5037653;28;20239;-81
2023/02/28 11:27:44;;;;;;;0.50;0.40;;;11.00;44.00;;;;;;5039301;28;20183;-80
2023/02/28 11:30:26;;;;;;;0.85;0.60;;;10.80;44.10;;;;;;5027413;28;20426;-81
2023/02/28 11:32:53;;;;;;;0.50;0.50;;;11.00;44.40;;;;;;5039214;28;20207;-80
2023/02/28 11:35:26;;;;;;;0.50;0.40;;;10.40;44.20;;;;;;5038828;28;20265;-80
2023/02/28 11:37:54;;;;;;;0.50;0.40;;;10.30;45.00;;;;;;5038799;28;20260;-80
2023/02/28 11:40:29;;;;;;;0.50;0.40;;;10.30;44.80;;;;;;5039283;28;20199;-81
2023/02/28 11:43:09;;;;;;;0.50;0.40;;;10.40;45.00;;;;;;5038298;28;20186;-81
2023/02/28 11:45:55;;;;;;;0.70;0.70;;;10.30;45.00;;;;;;5038434;28;20303;-78
2023/02/28 11:48:28;;;;;;;0.98;0.80;;;10.60;44.70;;;;;;5038868;28;20457;-80
2023/02/28 11:51:12;;;;;;;1.83;1.05;;;10.40;44.70;;;;;;5037651;28;20195;-79
2023/02/28 11:54:04;;;;;;;0.85;0.75;;;10.10;44.90;;;;;;5035224;28;20706;-81
2023/02/28 11:56:37;;;;;;;0.68;0.68;;;10.00;45.90;;;;;;5037241;28;20315;-81
2023/02/28 11:59:19;;;;;;;0.77;0.77;;;10.70;45.80;;;;;;5038102;28;20286;-80
2023/02/28 12:02:02;;;;;;;0.70;0.70;;;11.10;45.90;;;;;;5038240;28;20209;-80
2023/02/28 12:04:40;;;;;;;0.70;0.60;;;11.40;45.40;;;;;;5038034;28;20437;-81
2023/02/28 12:07:14;;;;;;;0.50;0.40;;;11.90;45.10;;;;;;5037822;28;20218;-81
2023/02/28 12:09:59;;;;;;;0.70;0.70;;;11.80;45.50;;;;;;5038070;28;20514;-79
2023/02/28 12:12:42;;;;;;;0.83;0.80;;;12.20;44.70;;;;;;5039824;28;20478;-79
2023/02/28 12:15:37;;;;;;;0.60;0.50;;;12.30;44.70;;;;;;5038434;28;20799;-80
2023/02/28 12:18:22;;;;;;;0.60;0.53;;;12.00;43.70;;;;;;5039144;28;20529;-79
2023/02/28 12:20:55;;;;;;;0.50;0.47;;;11.60;43.60;;;;;;5037330;28;20446;-80
2023/02/28 12:23:53;;;;;;;0.50;0.40;;;11.00;44.80;;;;;;5042428;28;20198;-81
2023/02/28 12:26:31;;;;;;;1.13;0.80;;;11.30;46.00;;;;;;5039886;28;20223;-80
2023/02/28 12:29:02;;;;;;;0.50;0.40;;;11.70;45.30;;;;;;5040129;28;20450;-81
2023/02/28 12:31:34;;;;;;;0.50;0.50;;;11.70;44.90;;;;;;5037454;28;20437;-82
2023/02/28 12:34:07;;;;;;;0.60;0.50;;;12.00;45.50;;;;;;5030959;28;20920;-82
2023/02/28 12:36:36;;;;;;;0.50;0.40;;;11.90;45.00;;;;;;5038583;28;20548;-81
2023/02/28 12:39:09;;;;;;;0.50;0.50;;;11.00;44.70;;;;;;5036830;28;20430;-81
2023/02/28 12:41:42;;;;;;;0.50;0.40;;;10.90;46.10;;;;;;5039283;28;20457;-81
2023/02/28 12:44:12;;;;;;;0.65;0.65;;;11.20;46.50;;;;;;5036964;28;20458;-81
2023/02/28 12:46:43;;;;;;;0.50;0.40;;;11.20;45.70;;;;;;5037737;28;20609;-79
2023/02/28 12:49:13;;;;;;;1.87;1.23;;;11.60;46.50;;;;;;5036693;28;20202;-79
2023/02/28 12:51:41;;;;;;;0.50;0.40;;;11.80;45.90;;;;;;5038003;28;20450;-81
2023/02/28 12:54:20;;;;;;;0.50;0.40;;;11.70;45.30;;;;;;5036220;28;20497;-80
2023/02/28 12:56:55;;;;;;;0.50;0.40;;;11.90;45.50;;;;;;5036348;28;20894;-80
2023/02/28 12:59:28;;;;;;;2.15;0.88;;;11.80;45.30;;;;;;5036630;28;20538;-80
2023/02/28 13:02:39;;;;;;;1.43;1.33;;;11.60;46.50;;;;;;5036536;28;20274;-79
2023/02/28 13:05:27;;;;;;;0.60;0.50;;;11.70;46.10;;;;;;5013653;28;20988;-79
2023/02/28 13:08:17;;;;;;;0.50;0.40;;;11.80;46.90;;;;;;5035868;28;20207;-80